Flight Track Log - Related Links

Times and Time Zones

All times are in EDT time to prevent confusion due to time zone crossing. See the DAL1562 flight status page for this flight to view local times or setup timezone preferences in your user account.

Time Position Orientation Groundspeed Altitude Reporting Facility
EDT Latitude Longitude Course Direction KTS MPH feet Rate Location/Type
Sun 10:23:00 PM 40.8125 -111.9661 148° Southeast 191 220 5,200  Level Salt Lake Center
Sun 10:23:49 PM 40.8586 -111.9703 356° North 206 237 6,200 1,151 Climbing Salt Lake Center
Sun 10:24:13 PM 40.8836 -111.9736 354° North 225 259 6,600 2,164 Climbing Salt Lake Center
Sun 10:24:50 PM 40.9294 -111.9800 354° North 261 300 8,400 3,049 Climbing Salt Lake Center
Sun 10:25:00 PM 41.1066 -111.9613 51° Northeast  Level FlightAware Approximate
Sun 10:25:14 PM 40.9581 -111.9833 355° North 263 303 9,700  Level Salt Lake Center
Sun 10:26:00 PM 41.1333 -111.8235 90° East  Level FlightAware Approximate
Sun 10:26:16 PM 41.0311 -111.9778 North 275 316 12,600  Level Salt Lake Center
Sun 10:27:00 PM 41.0610 -111.7180 148° Southeast  Level FlightAware Approximate
Sun 10:27:17 PM 41.0292 -111.8761 91° East 304 350 14,900  Level Salt Lake Center
Sun 10:28:00 PM 40.9647 -111.6392 148° Southeast  Level FlightAware Approximate
Sun 10:28:18 PM 41.0022 -111.7631 107° East 351 404 15,900  Level Salt Lake Center
Sun 10:29:20 PM 40.9861 -111.5903 97° East 398 458 18,300 2,098 Climbing Salt Lake Center
Sun 10:30:21 PM 40.9725 -111.4378 97° East 417 480 20,200 2,000 Climbing Salt Lake Center
Sun 10:31:23 PM 40.9581 -111.2831 97° East 422 486 22,400 1,854 Climbing Salt Lake Center
Sun 10:32:24 PM 40.9428 -111.1242 97° East 435 501 24,000 1,475 Climbing Salt Lake Center
Sun 10:33:25 PM 40.9275 -110.9608 97° East 447 514 25,400 1,512 Climbing Salt Lake Center
Sun 10:34:27 PM 40.9114 -110.7933 97° East 459 528 27,100 1,463 Climbing Salt Lake Center
Sun 10:35:28 PM 40.8953 -110.6261 97° East 459 528 28,400 1,268 Climbing Salt Lake Center
Sun 10:36:30 PM 40.8756 -110.4319 98° East 471 542 29,700 1,317 Climbing Salt Lake Center
Sun 10:37:31 PM 40.8597 -110.2664 97° East 476 548 31,100 1,525 Climbing Salt Lake Center
Sun 10:38:32 PM 40.8406 -110.0833 98° East 470 541 32,800 1,426 Climbing Salt Lake Center
Sun 10:39:33 PM 40.8253 -109.9239 97° East 461 531 34,000 1,220 Climbing Salt Lake Center
Sun 10:40:35 PM 40.8050 -109.7414 98° East 452 520 35,300 976 Climbing Salt Lake Center
Sun 10:41:36 PM 40.7883 -109.5856 98° East 448 516 36,000 787 Climbing Salt Lake Center
Sun 10:42:37 PM 40.7714 -109.4294 98° East 448 516 36,900 488 Climbing Salt Lake Center
Sun 10:43:39 PM 40.7575 -109.2517 96° East 439 505 37,000 49 Climbing Salt Lake Center
Sun 10:44:40 PM 40.7422 -109.0997 98° East 437 503 37,000 49 Level Salt Lake Center
Sun 10:45:41 PM 40.7267 -108.9203 96° East 441 507 37,100 63 Climbing Salt Lake Center
Sun 10:46:16 PM 40.7208 -108.8411 96° East 439 505 37,100 -62 Level Denver Center
Sun 10:47:18 PM 40.7039 -108.6611 97° East 442 509 37,000 -68 Descending Denver Center
Sun 10:47:44 PM 40.6994 -108.6175 98° East 439 505 37,000  Level Salt Lake Center
Sun 10:48:45 PM 40.6825 -108.4406 97° East 437 503 37,000  Level Salt Lake Center
Sun 10:49:20 PM 40.6750 -108.3564 97° East 438 504 37,000  Level Denver Center
Sun 10:50:22 PM 40.6581 -108.1794 97° East 436 502 37,000  Level Denver Center
Sun 10:51:23 PM 40.6425 -108.0275 98° East 437 503 37,000  Level Denver Center
Sun 10:52:24 PM 40.6283 -107.8744 97° East 438 504 37,000  Level Denver Center
Sun 10:53:25 PM 40.6106 -107.6975 97° East 436 502 37,000  Level Denver Center
Sun 10:54:27 PM 40.5939 -107.5450 98° East 439 505 37,000  Level Denver Center
Sun 10:55:28 PM 40.5753 -107.3683 98° East 438 504 37,000 49 Level Denver Center
Sun 10:56:29 PM 40.5600 -107.2156 97° East 439 505 37,100  Climbing Denver Center
Sun 10:57:31 PM 40.5431 -107.0575 98° East 442 509 37,000 -49 Descending Denver Center
Sun 10:58:32 PM 40.5258 -106.8981 98° East 441 507 37,000  Level Denver Center
Sun 10:59:33 PM 40.5083 -106.7389 98° East 439 505 37,000 -295 Level Denver Center
Sun 11:00:34 PM 40.4911 -106.5797 98° East 438 504 36,400 -1,082 Descending Denver Center
Sun 11:01:35 PM 40.4700 -106.4011 99° East 445 512 34,800 -2,390 Descending Denver Center
Sun 11:02:37 PM 40.4542 -106.2469 98° East 445 512 31,500 -3,220 Descending Denver Center
Sun 11:03:38 PM 40.4344 -106.0906 99° East 456 525 28,200 -3,000 Descending Denver Center
Sun 11:04:39 PM 40.4144 -105.9264 99° East 455 524 25,400 -2,754 Descending Denver Center
Sun 11:05:40 PM 40.3967 -105.7708 98° East 436 502 22,600 -2,557 Descending Denver Center
Sun 11:06:41 PM 40.3772 -105.6161 99° East 432 497 20,200 -1,707 Descending Denver Center
Sun 11:07:43 PM 40.3564 -105.4519 99° East 395 455 19,100 -1,317 Descending Denver Center
Sun 11:08:44 PM 40.3417 -105.3322 99° East 338 389 17,500 -1,623 Descending Denver Center
Sun 11:09:45 PM 40.3258 -105.2139 100° East 332 382 15,800 -1,721 Descending Denver Center
Sun 11:10:46 PM 40.3094 -105.0964 100° East 328 377 14,000 -1,279 Descending Denver Center
Sun 11:11:47 PM 40.2817 -104.9894 109° East 313 360 13,200 -1,317 Descending Denver Center
Sun 11:12:49 PM 40.2353 -104.8897 121° Southeast 297 342 11,300 -1,317 Descending Denver Center
Sun 11:13:50 PM 40.1953 -104.7942 119° Southeast 299 344 10,500 -1,082 Descending Denver Center
Sun 11:14:51 PM 40.1511 -104.7197 128° Southeast 275 316 9,100 -836 Descending Denver Center
Sun 11:15:52 PM 40.0889 -104.6836 156° South 246 283 8,800 -295 Descending Denver Center

Login

Don't have an account? Register now (free) for customized features, flight alerts, and more!